sensor_id;sensor_type;location;lat;lon;timestamp;temperature;humidity
18444;DHT22;9350;53.176;8.194;2023-03-13T00:01:41;5.50;99.90
18444;DHT22;9350;53.176;8.194;2023-03-13T00:04:08;5.50;99.90
18444;DHT22;9350;53.176;8.194;2023-03-13T00:06:36;5.50;99.90
18444;DHT22;9350;53.176;8.194;2023-03-13T00:09:05;5.60;99.90
18444;DHT22;9350;53.176;8.194;2023-03-13T00:11:32;5.60;99.90
18444;DHT22;9350;53.176;8.194;2023-03-13T00:14:01;5.60;99.90
18444;DHT22;9350;53.176;8.194;2023-03-13T00:16:29;5.60;99.90
18444;DHT22;9350;53.176;8.194;2023-03-13T00:18:57;5.60;99.90
18444;DHT22;9350;53.176;8.194;2023-03-13T00:21:25;5.60;99.90
18444;DHT22;9350;53.176;8.194;2023-03-13T00:23:52;5.60;99.90
18444;DHT22;9350;53.176;8.194;2023-03-13T00:26:22;5.60;99.90
18444;DHT22;9350;53.176;8.194;2023-03-13T00:28:50;5.60;99.90
18444;DHT22;9350;53.176;8.194;2023-03-13T00:31:18;5.60;99.90
18444;DHT22;9350;53.176;8.194;2023-03-13T00:33:47;5.60;99.90
18444;DHT22;9350;53.176;8.194;2023-03-13T00:36:16;5.60;99.90
18444;DHT22;9350;53.176;8.194;2023-03-13T00:38:43;5.60;99.90
18444;DHT22;9350;53.176;8.194;2023-03-13T00:41:11;5.60;99.90
18444;DHT22;9350;53.176;8.194;2023-03-13T00:43:41;5.60;99.90
18444;DHT22;9350;53.176;8.194;2023-03-13T00:46:09;5.70;99.90
18444;DHT22;9350;53.176;8.194;2023-03-13T00:48:36;5.70;99.90
18444;DHT22;9350;53.176;8.194;2023-03-13T00:51:03;5.70;99.90
18444;DHT22;9350;53.176;8.194;2023-03-13T00:53:30;5.70;99.90
18444;DHT22;9350;53.176;8.194;2023-03-13T00:55:58;5.70;99.90
18444;DHT22;9350;53.176;8.194;2023-03-13T00:58:26;5.80;99.90
18444;DHT22;9350;53.176;8.194;2023-03-13T01:00:55;5.70;99.90
18444;DHT22;9350;53.176;8.194;2023-03-13T01:03:23;5.70;99.90
18444;DHT22;9350;53.176;8.194;2023-03-13T01:05:56;5.80;99.90
18444;DHT22;9350;53.176;8.194;2023-03-13T01:08:23;5.80;99.90
18444;DHT22;9350;53.176;8.194;2023-03-13T01:10:50;5.90;99.90
18444;DHT22;9350;53.176;8.194;2023-03-13T01:13:17;5.90;99.90
18444;DHT22;9350;53.176;8.194;2023-03-13T01:15:43;5.90;99.90
18444;DHT22;9350;53.176;8.194;2023-03-13T01:18:11;5.90;99.90
18444;DHT22;9350;53.176;8.194;2023-03-13T01:20:39;5.80;99.90
18444;DHT22;9350;53.176;8.194;2023-03-13T01:23:06;5.90;99.90
18444;DHT22;9350;53.176;8.194;2023-03-13T01:25:35;5.90;99.90
18444;DHT22;9350;53.176;8.194;2023-03-13T01:28:01;5.80;99.90
18444;DHT22;9350;53.176;8.194;2023-03-13T01:30:28;5.90;99.90
18444;DHT22;9350;53.176;8.194;2023-03-13T01:32:55;5.90;99.90
18444;DHT22;9350;53.176;8.194;2023-03-13T01:35:23;5.80;99.90
18444;DHT22;9350;53.176;8.194;2023-03-13T01:37:50;5.80;99.90
18444;DHT22;9350;53.176;8.194;2023-03-13T01:40:17;5.80;99.90
18444;DHT22;9350;53.176;8.194;2023-03-13T01:42:51;5.90;99.90
18444;DHT22;9350;53.176;8.194;2023-03-13T01:48:25;5.90;99.90
18444;DHT22;9350;53.176;8.194;2023-03-13T01:51:00;5.90;99.90
18444;DHT22;9350;53.176;8.194;2023-03-13T01:53:29;5.90;99.90
18444;DHT22;9350;53.176;8.194;2023-03-13T01:55:57;5.90;99.90
18444;DHT22;9350;53.176;8.194;2023-03-13T01:58:27;5.90;99.90
18444;DHT22;9350;53.176;8.194;2023-03-13T02:00:54;5.90;99.90
18444;DHT22;9350;53.176;8.194;2023-03-13T02:03:21;5.90;99.90
18444;DHT22;9350;53.176;8.194;2023-03-13T02:05:49;5.90;99.90
18444;DHT22;9350;53.176;8.194;2023-03-13T02:08:20;5.90;99.90
18444;DHT22;9350;53.176;8.194;2023-03-13T02:10:50;5.90;99.90
18444;DHT22;9350;53.176;8.194;2023-03-13T02:13:19;5.90;99.90
18444;DHT22;9350;53.176;8.194;2023-03-13T02:15:47;5.90;99.90
18444;DHT22;9350;53.176;8.194;2023-03-13T02:18:14;6.00;99.90
18444;DHT22;9350;53.176;8.194;2023-03-13T02:20:41;6.00;99.90
18444;DHT22;9350;53.176;8.194;2023-03-13T02:23:13;6.00;99.90
18444;DHT22;9350;53.176;8.194;2023-03-13T02:25:44;6.00;99.90
18444;DHT22;9350;53.176;8.194;2023-03-13T02:28:14;6.00;99.90
18444;DHT22;9350;53.176;8.194;2023-03-13T02:30:43;6.00;99.90
18444;DHT22;9350;53.176;8.194;2023-03-13T02:33:11;6.10;99.90
18444;DHT22;9350;53.176;8.194;2023-03-13T02:35:39;6.10;99.90
18444;DHT22;9350;53.176;8.194;2023-03-13T02:38:08;6.10;99.90
18444;DHT22;9350;53.176;8.194;2023-03-13T02:40:37;6.10;99.90
18444;DHT22;9350;53.176;8.194;2023-03-13T02:43:09;6.10;99.90
18444;DHT22;9350;53.176;8.194;2023-03-13T02:45:36;6.10;99.90
18444;DHT22;9350;53.176;8.194;2023-03-13T02:48:03;6.10;99.90
18444;DHT22;9350;53.176;8.194;2023-03-13T02:50:30;6.20;99.90
18444;DHT22;9350;53.176;8.194;2023-03-13T02:53:01;6.10;99.90
18444;DHT22;9350;53.176;8.194;2023-03-13T02:55:31;6.10;99.90
18444;DHT22;9350;53.176;8.194;2023-03-13T02:58:00;6.10;99.90
18444;DHT22;9350;53.176;8.194;2023-03-13T03:00:28;6.10;99.90
18444;DHT22;9350;53.176;8.194;2023-03-13T03:02:55;6.10;99.90
18444;DHT22;9350;53.176;8.194;2023-03-13T03:05:22;6.10;99.90
18444;DHT22;9350;53.176;8.194;2023-03-13T03:07:49;6.10;99.90
18444;DHT22;9350;53.176;8.194;2023-03-13T03:10:17;6.20;99.90
18444;DHT22;9350;53.176;8.194;2023-03-13T03:12:44;6.20;99.90
18444;DHT22;9350;53.176;8.194;2023-03-13T03:15:11;6.20;99.90
18444;DHT22;9350;53.176;8.194;2023-03-13T03:17:39;6.20;99.90
18444;DHT22;9350;53.176;8.194;2023-03-13T03:20:06;6.20;99.90
18444;DHT22;9350;53.176;8.194;2023-03-13T03:22:36;6.20;99.90
18444;DHT22;9350;53.176;8.194;2023-03-13T03:25:06;6.30;99.90
18444;DHT22;9350;53.176;8.194;2023-03-13T03:27:33;6.30;99.90
18444;DHT22;9350;53.176;8.194;2023-03-13T03:30:00;6.30;99.90
18444;DHT22;9350;53.176;8.194;2023-03-13T03:32:27;6.30;99.90
18444;DHT22;9350;53.176;8.194;2023-03-13T03:34:55;6.30;99.90
18444;DHT22;9350;53.176;8.194;2023-03-13T03:37:22;6.40;99.90
18444;DHT22;9350;53.176;8.194;2023-03-13T03:39:48;6.40;99.90
18444;DHT22;9350;53.176;8.194;2023-03-13T03:42:15;6.30;99.90
18444;DHT22;9350;53.176;8.194;2023-03-13T03:44:42;6.40;99.90
18444;DHT22;9350;53.176;8.194;2023-03-13T03:47:08;6.40;99.90
18444;DHT22;9350;53.176;8.194;2023-03-13T03:49:35;6.40;99.90
18444;DHT22;9350;53.176;8.194;2023-03-13T03:52:04;6.40;99.90
18444;DHT22;9350;53.176;8.194;2023-03-13T03:54:30;6.50;99.90
18444;DHT22;9350;53.176;8.194;2023-03-13T03:56:57;6.50;99.90
18444;DHT22;9350;53.176;8.194;2023-03-13T03:59:24;6.50;99.90
18444;DHT22;9350;53.176;8.194;2023-03-13T04:01:50;6.60;99.90
18444;DHT22;9350;53.176;8.194;2023-03-13T04:04:17;6.60;99.90
18444;DHT22;9350;53.176;8.194;2023-03-13T04:06:44;6.50;99.90
18444;DHT22;9350;53.176;8.194;2023-03-13T04:09:12;6.60;99.90
18444;DHT22;9350;53.176;8.194;2023-03-13T04:11:38;6.60;99.90
18444;DHT22;9350;53.176;8.194;2023-03-13T04:14:05;6.70;99.90
18444;DHT22;9350;53.176;8.194;2023-03-13T04:16:32;6.70;99.90
18444;DHT22;9350;53.176;8.194;2023-03-13T04:19:00;6.70;99.90
18444;DHT22;9350;53.176;8.194;2023-03-13T04:21:26;6.60;99.90
18444;DHT22;9350;53.176;8.194;2023-03-13T04:23:53;6.60;99.90
18444;DHT22;9350;53.176;8.194;2023-03-13T04:26:21;6.60;99.90
18444;DHT22;9350;53.176;8.194;2023-03-13T04:28:48;6.60;99.90
18444;DHT22;9350;53.176;8.194;2023-03-13T04:31:14;6.70;99.90
18444;DHT22;9350;53.176;8.194;2023-03-13T04:33:41;6.70;99.90
18444;DHT22;9350;53.176;8.194;2023-03-13T04:36:08;6.80;99.90
18444;DHT22;9350;53.176;8.194;2023-03-13T04:38:35;6.70;99.90
18444;DHT22;9350;53.176;8.194;2023-03-13T04:41:02;6.80;99.90
18444;DHT22;9350;53.176;8.194;2023-03-13T04:43:30;6.90;99.90
18444;DHT22;9350;53.176;8.194;2023-03-13T04:45:56;6.90;99.90
18444;DHT22;9350;53.176;8.194;2023-03-13T04:48:23;7.00;99.90
18444;DHT22;9350;53.176;8.194;2023-03-13T04:50:50;6.90;99.90
18444;DHT22;9350;53.176;8.194;2023-03-13T04:53:16;6.90;99.90
18444;DHT22;9350;53.176;8.194;2023-03-13T04:55:43;6.80;99.90
18444;DHT22;9350;53.176;8.194;2023-03-13T04:58:11;6.90;99.90
18444;DHT22;9350;53.176;8.194;2023-03-13T05:00:40;7.00;99.90
18444;DHT22;9350;53.176;8.194;2023-03-13T05:03:07;7.00;99.90
18444;DHT22;9350;53.176;8.194;2023-03-13T05:05:34;7.00;99.90
18444;DHT22;9350;53.176;8.194;2023-03-13T05:08:01;7.00;99.90
18444;DHT22;9350;53.176;8.194;2023-03-13T05:10:27;7.00;99.90
18444;DHT22;9350;53.176;8.194;2023-03-13T05:12:54;7.10;99.90
18444;DHT22;9350;53.176;8.194;2023-03-13T05:15:21;7.20;99.90
18444;DHT22;9350;53.176;8.194;2023-03-13T05:17:49;7.10;99.90
18444;DHT22;9350;53.176;8.194;2023-03-13T05:20:16;7.20;99.90
18444;DHT22;9350;53.176;8.194;2023-03-13T05:22:43;7.20;99.90
18444;DHT22;9350;53.176;8.194;2023-03-13T05:25:09;7.10;99.90
18444;DHT22;9350;53.176;8.194;2023-03-13T05:27:36;7.20;99.90
18444;DHT22;9350;53.176;8.194;2023-03-13T05:30:03;7.10;99.90
18444;DHT22;9350;53.176;8.194;2023-03-13T05:32:30;7.30;99.90
18444;DHT22;9350;53.176;8.194;2023-03-13T05:34:58;7.30;99.90
18444;DHT22;9350;53.176;8.194;2023-03-13T05:37:25;7.40;99.90
18444;DHT22;9350;53.176;8.194;2023-03-13T05:39:51;7.40;99.90
18444;DHT22;9350;53.176;8.194;2023-03-13T05:42:18;7.40;99.90
18444;DHT22;9350;53.176;8.194;2023-03-13T05:44:45;7.40;99.90
18444;DHT22;9350;53.176;8.194;2023-03-13T05:47:11;7.40;99.90
18444;DHT22;9350;53.176;8.194;2023-03-13T05:49:38;7.40;99.90
18444;DHT22;9350;53.176;8.194;2023-03-13T05:52:06;7.50;99.90
18444;DHT22;9350;53.176;8.194;2023-03-13T05:54:33;7.60;99.90
18444;DHT22;9350;53.176;8.194;2023-03-13T05:56:59;7.60;99.90
18444;DHT22;9350;53.176;8.194;2023-03-13T05:59:26;7.60;99.90
18444;DHT22;9350;53.176;8.194;2023-03-13T06:01:53;7.70;99.90
18444;DHT22;9350;53.176;8.194;2023-03-13T06:04:19;7.70;99.90
18444;DHT22;9350;53.176;8.194;2023-03-13T06:06:46;7.60;99.90
18444;DHT22;9350;53.176;8.194;2023-03-13T06:09:14;7.60;99.90
18444;DHT22;9350;53.176;8.194;2023-03-13T06:11:41;7.70;99.90
18444;DHT22;9350;53.176;8.194;2023-03-13T06:14:07;7.70;99.90
18444;DHT22;9350;53.176;8.194;2023-03-13T06:16:34;7.80;99.90
18444;DHT22;9350;53.176;8.194;2023-03-13T06:19:01;7.90;99.90
18444;DHT22;9350;53.176;8.194;2023-03-13T06:21:28;7.90;99.90
18444;DHT22;9350;53.176;8.194;2023-03-13T06:23:55;7.90;99.90
18444;DHT22;9350;53.176;8.194;2023-03-13T06:26:23;7.90;99.90
18444;DHT22;9350;53.176;8.194;2023-03-13T06:28:50;7.90;99.90
18444;DHT22;9350;53.176;8.194;2023-03-13T06:31:17;8.00;99.90
18444;DHT22;9350;53.176;8.194;2023-03-13T06:33:44;8.00;99.90
18444;DHT22;9350;53.176;8.194;2023-03-13T06:36:11;8.10;99.90
18444;DHT22;9350;53.176;8.194;2023-03-13T06:38:38;8.10;99.90
18444;DHT22;9350;53.176;8.194;2023-03-13T06:41:04;8.10;99.90
18444;DHT22;9350;53.176;8.194;2023-03-13T06:43:32;8.20;99.90
18444;DHT22;9350;53.176;8.194;2023-03-13T06:46:03;8.30;99.90
18444;DHT22;9350;53.176;8.194;2023-03-13T06:48:30;8.40;99.90
18444;DHT22;9350;53.176;8.194;2023-03-13T06:50:57;8.40;99.90
18444;DHT22;9350;53.176;8.194;2023-03-13T06:53:24;8.30;99.90
18444;DHT22;9350;53.176;8.194;2023-03-13T06:55:50;8.40;99.90
18444;DHT22;9350;53.176;8.194;2023-03-13T06:58:17;8.60;99.90
18444;DHT22;9350;53.176;8.194;2023-03-13T07:00:45;8.70;99.90
18444;DHT22;9350;53.176;8.194;2023-03-13T07:03:12;8.70;99.90
18444;DHT22;9350;53.176;8.194;2023-03-13T07:05:39;8.70;99.90
18444;DHT22;9350;53.176;8.194;2023-03-13T07:08:06;8.70;99.90
18444;DHT22;9350;53.176;8.194;2023-03-13T07:10:33;8.70;99.90
18444;DHT22;9350;53.176;8.194;2023-03-13T07:12:59;8.70;99.90
18444;DHT22;9350;53.176;8.194;2023-03-13T07:15:26;8.70;99.90
18444;DHT22;9350;53.176;8.194;2023-03-13T07:17:55;8.70;99.90
18444;DHT22;9350;53.176;8.194;2023-03-13T07:20:22;8.60;99.90
18444;DHT22;9350;53.176;8.194;2023-03-13T07:22:52;8.70;99.90
18444;DHT22;9350;53.176;8.194;2023-03-13T07:25:19;9.00;99.90
18444;DHT22;9350;53.176;8.194;2023-03-13T07:27:49;8.90;99.90
18444;DHT22;9350;53.176;8.194;2023-03-13T07:30:17;9.00;99.90
18444;DHT22;9350;53.176;8.194;2023-03-13T07:32:44;9.00;99.90
18444;DHT22;9350;53.176;8.194;2023-03-13T07:35:12;9.00;99.90
18444;DHT22;9350;53.176;8.194;2023-03-13T07:37:38;9.10;99.90
18444;DHT22;9350;53.176;8.194;2023-03-13T07:40:06;9.10;99.90
18444;DHT22;9350;53.176;8.194;2023-03-13T07:42:34;9.30;99.90
18444;DHT22;9350;53.176;8.194;2023-03-13T07:45:01;9.20;99.90
18444;DHT22;9350;53.176;8.194;2023-03-13T07:47:28;9.10;99.90
18444;DHT22;9350;53.176;8.194;2023-03-13T07:49:56;9.20;99.90
18444;DHT22;9350;53.176;8.194;2023-03-13T07:52:24;9.20;99.90
18444;DHT22;9350;53.176;8.194;2023-03-13T07:54:52;9.20;99.90
18444;DHT22;9350;53.176;8.194;2023-03-13T07:57:19;9.30;99.90
18444;DHT22;9350;53.176;8.194;2023-03-13T07:59:46;9.20;99.90
18444;DHT22;9350;53.176;8.194;2023-03-13T08:02:12;9.30;99.90
18444;DHT22;9350;53.176;8.194;2023-03-13T08:04:41;9.30;99.90
18444;DHT22;9350;53.176;8.194;2023-03-13T08:07:08;9.30;99.90
18444;DHT22;9350;53.176;8.194;2023-03-13T08:09:36;9.40;99.90
18444;DHT22;9350;53.176;8.194;2023-03-13T08:12:03;9.40;99.90
18444;DHT22;9350;53.176;8.194;2023-03-13T08:14:30;9.40;99.90
18444;DHT22;9350;53.176;8.194;2023-03-13T08:16:57;9.40;99.90
18444;DHT22;9350;53.176;8.194;2023-03-13T08:19:23;9.40;99.90
18444;DHT22;9350;53.176;8.194;2023-03-13T08:21:50;9.40;99.90
18444;DHT22;9350;53.176;8.194;2023-03-13T08:24:17;9.60;99.90
18444;DHT22;9350;53.176;8.194;2023-03-13T08:26:45;9.40;99.90
18444;DHT22;9350;53.176;8.194;2023-03-13T08:29:13;9.50;99.90
18444;DHT22;9350;53.176;8.194;2023-03-13T08:31:42;9.50;99.90
18444;DHT22;9350;53.176;8.194;2023-03-13T08:34:10;9.40;99.90
18444;DHT22;9350;53.176;8.194;2023-03-13T08:36:37;9.40;99.90
18444;DHT22;9350;53.176;8.194;2023-03-13T08:39:11;9.50;99.90
18444;DHT22;9350;53.176;8.194;2023-03-13T08:41:38;9.50;99.90
18444;DHT22;9350;53.176;8.194;2023-03-13T08:44:08;9.60;99.90
18444;DHT22;9350;53.176;8.194;2023-03-13T08:46:36;9.60;99.90
18444;DHT22;9350;53.176;8.194;2023-03-13T08:49:04;9.60;99.90
18444;DHT22;9350;53.176;8.194;2023-03-13T08:51:31;9.60;99.90
18444;DHT22;9350;53.176;8.194;2023-03-13T08:53:59;9.70;99.90
18444;DHT22;9350;53.176;8.194;2023-03-13T08:56:28;9.70;99.90
18444;DHT22;9350;53.176;8.194;2023-03-13T08:58:57;9.80;99.90
18444;DHT22;9350;53.176;8.194;2023-03-13T09:01:27;9.80;99.90
18444;DHT22;9350;53.176;8.194;2023-03-13T09:03:54;9.80;99.90
18444;DHT22;9350;53.176;8.194;2023-03-13T09:06:21;9.90;99.90
18444;DHT22;9350;53.176;8.194;2023-03-13T09:08:48;9.80;99.90
18444;DHT22;9350;53.176;8.194;2023-03-13T09:11:17;9.90;99.90
18444;DHT22;9350;53.176;8.194;2023-03-13T09:13:46;9.90;99.90
18444;DHT22;9350;53.176;8.194;2023-03-13T09:16:14;10.00;99.90
18444;DHT22;9350;53.176;8.194;2023-03-13T09:18:42;10.00;99.90
18444;DHT22;9350;53.176;8.194;2023-03-13T09:21:11;10.00;99.90
18444;DHT22;9350;53.176;8.194;2023-03-13T09:23:38;10.00;99.90
18444;DHT22;9350;53.176;8.194;2023-03-13T09:26:05;10.00;99.90
18444;DHT22;9350;53.176;8.194;2023-03-13T09:28:32;10.10;99.90
18444;DHT22;9350;53.176;8.194;2023-03-13T09:31:05;10.00;99.90
18444;DHT22;9350;53.176;8.194;2023-03-13T09:33:33;10.10;99.90
18444;DHT22;9350;53.176;8.194;2023-03-13T09:36:01;10.20;99.90
18444;DHT22;9350;53.176;8.194;2023-03-13T09:38:28;10.20;99.90
18444;DHT22;9350;53.176;8.194;2023-03-13T09:41:01;10.20;99.90
18444;DHT22;9350;53.176;8.194;2023-03-13T09:43:36;10.40;99.90
18444;DHT22;9350;53.176;8.194;2023-03-13T09:46:12;10.20;99.90
18444;DHT22;9350;53.176;8.194;2023-03-13T09:48:43;10.30;99.90
18444;DHT22;9350;53.176;8.194;2023-03-13T09:51:17;10.40;99.90
18444;DHT22;9350;53.176;8.194;2023-03-13T09:53:47;10.40;99.90
18444;DHT22;9350;53.176;8.194;2023-03-13T09:56:18;10.50;99.90
18444;DHT22;9350;53.176;8.194;2023-03-13T09:58:51;10.40;99.90
18444;DHT22;9350;53.176;8.194;2023-03-13T10:01:22;10.40;99.90
18444;DHT22;9350;53.176;8.194;2023-03-13T10:04:01;10.40;99.90
18444;DHT22;9350;53.176;8.194;2023-03-13T10:06:34;10.40;99.90
18444;DHT22;9350;53.176;8.194;2023-03-13T10:09:01;10.50;99.90
18444;DHT22;9350;53.176;8.194;2023-03-13T10:11:31;10.50;99.90
18444;DHT22;9350;53.176;8.194;2023-03-13T10:14:06;10.50;99.90
18444;DHT22;9350;53.176;8.194;2023-03-13T10:16:40;10.70;99.90
18444;DHT22;9350;53.176;8.194;2023-03-13T10:19:13;10.60;99.90
18444;DHT22;9350;53.176;8.194;2023-03-13T10:21:43;10.70;99.90
18444;DHT22;9350;53.176;8.194;2023-03-13T10:24:17;10.60;99.90
18444;DHT22;9350;53.176;8.194;2023-03-13T10:26:46;10.70;99.90
18444;DHT22;9350;53.176;8.194;2023-03-13T10:29:20;10.80;99.90
18444;DHT22;9350;53.176;8.194;2023-03-13T10:31:53;10.90;99.90
18444;DHT22;9350;53.176;8.194;2023-03-13T10:34:20;10.90;99.90
18444;DHT22;9350;53.176;8.194;2023-03-13T10:36:53;10.90;99.90
18444;DHT22;9350;53.176;8.194;2023-03-13T10:39:22;10.90;99.90
18444;DHT22;9350;53.176;8.194;2023-03-13T10:41:49;11.00;99.90
18444;DHT22;9350;53.176;8.194;2023-03-13T10:44:19;11.00;99.90
18444;DHT22;9350;53.176;8.194;2023-03-13T10:46:47;11.00;99.90
18444;DHT22;9350;53.176;8.194;2023-03-13T10:49:15;11.00;99.90
18444;DHT22;9350;53.176;8.194;2023-03-13T10:51:48;10.90;99.90
18444;DHT22;9350;53.176;8.194;2023-03-13T10:54:21;10.90;99.90
18444;DHT22;9350;53.176;8.194;2023-03-13T10:56:48;11.10;99.90
18444;DHT22;9350;53.176;8.194;2023-03-13T10:59:23;11.10;99.90
18444;DHT22;9350;53.176;8.194;2023-03-13T11:01:51;11.00;99.90
18444;DHT22;9350;53.176;8.194;2023-03-13T11:04:27;11.00;99.90
18444;DHT22;9350;53.176;8.194;2023-03-13T11:07:01;11.00;99.90
18444;DHT22;9350;53.176;8.194;2023-03-13T11:09:28;11.00;99.90
18444;DHT22;9350;53.176;8.194;2023-03-13T11:12:01;11.20;99.90
18444;DHT22;9350;53.176;8.194;2023-03-13T11:14:29;11.30;99.90
18444;DHT22;9350;53.176;8.194;2023-03-13T11:17:01;11.30;99.90
18444;DHT22;9350;53.176;8.194;2023-03-13T11:19:40;11.40;99.90
18444;DHT22;9350;53.176;8.194;2023-03-13T11:22:33;11.40;99.90
18444;DHT22;9350;53.176;8.194;2023-03-13T11:25:17;11.40;99.90
18444;DHT22;9350;53.176;8.194;2023-03-13T11:27:53;11.50;99.90
18444;DHT22;9350;53.176;8.194;2023-03-13T11:30:41;11.40;99.90
18444;DHT22;9350;53.176;8.194;2023-03-13T11:33:17;11.60;99.90
18444;DHT22;9350;53.176;8.194;2023-03-13T11:35:49;11.50;99.90
18444;DHT22;9350;53.176;8.194;2023-03-13T11:38:26;11.60;99.90
18444;DHT22;9350;53.176;8.194;2023-03-13T11:41:01;11.70;99.90
18444;DHT22;9350;53.176;8.194;2023-03-13T11:43:38;11.70;99.90
18444;DHT22;9350;53.176;8.194;2023-03-13T11:46:17;11.70;99.90
18444;DHT22;9350;53.176;8.194;2023-03-13T11:49:06;11.70;99.90
18444;DHT22;9350;53.176;8.194;2023-03-13T11:51:45;11.70;99.90
18444;DHT22;9350;53.176;8.194;2023-03-13T11:54:40;11.80;99.90
18444;DHT22;9350;53.176;8.194;2023-03-13T11:57:13;11.70;99.90
18444;DHT22;9350;53.176;8.194;2023-03-13T11:59:47;11.70;99.90
18444;DHT22;9350;53.176;8.194;2023-03-13T12:02:20;11.80;99.90
18444;DHT22;9350;53.176;8.194;2023-03-13T12:04:51;11.80;99.90
18444;DHT22;9350;53.176;8.194;2023-03-13T12:07:24;11.80;99.90
18444;DHT22;9350;53.176;8.194;2023-03-13T12:09:57;12.00;99.90
18444;DHT22;9350;53.176;8.194;2023-03-13T12:12:32;12.00;99.90
18444;DHT22;9350;53.176;8.194;2023-03-13T12:15:07;12.10;99.90
18444;DHT22;9350;53.176;8.194;2023-03-13T12:17:43;12.10;99.90
18444;DHT22;9350;53.176;8.194;2023-03-13T12:20:18;12.10;99.90
18444;DHT22;9350;53.176;8.194;2023-03-13T12:22:51;12.00;99.90
18444;DHT22;9350;53.176;8.194;2023-03-13T12:25:23;12.10;99.90
18444;DHT22;9350;53.176;8.194;2023-03-13T12:27:55;12.20;99.90
18444;DHT22;9350;53.176;8.194;2023-03-13T12:30:31;12.30;99.90
18444;DHT22;9350;53.176;8.194;2023-03-13T12:33:04;12.30;99.90
18444;DHT22;9350;53.176;8.194;2023-03-13T12:35:40;12.40;99.90
18444;DHT22;9350;53.176;8.194;2023-03-13T12:38:14;12.40;99.90
18444;DHT22;9350;53.176;8.194;2023-03-13T12:40:48;12.50;99.90
18444;DHT22;9350;53.176;8.194;2023-03-13T12:43:18;12.70;99.90
18444;DHT22;9350;53.176;8.194;2023-03-13T12:46:02;12.70;99.90
18444;DHT22;9350;53.176;8.194;2023-03-13T12:48:51;12.70;99.90
18444;DHT22;9350;53.176;8.194;2023-03-13T12:51:32;12.70;99.90
18444;DHT22;9350;53.176;8.194;2023-03-13T12:57:13;12.70;99.90
18444;DHT22;9350;53.176;8.194;2023-03-13T12:59:43;12.80;99.90
18444;DHT22;9350;53.176;8.194;2023-03-13T13:02:15;12.90;99.90
18444;DHT22;9350;53.176;8.194;2023-03-13T13:04:45;13.10;99.90
18444;DHT22;9350;53.176;8.194;2023-03-13T13:07:21;13.20;99.90
18444;DHT22;9350;53.176;8.194;2023-03-13T13:10:15;13.20;99.90
18444;DHT22;9350;53.176;8.194;2023-03-13T13:12:45;13.40;99.90
18444;DHT22;9350;53.176;8.194;2023-03-13T13:15:18;13.30;99.90
18444;DHT22;9350;53.176;8.194;2023-03-13T13:18:00;13.40;99.90
18444;DHT22;9350;53.176;8.194;2023-03-13T13:20:47;13.40;99.90
18444;DHT22;9350;53.176;8.194;2023-03-13T13:23:29;13.40;99.90
18444;DHT22;9350;53.176;8.194;2023-03-13T13:32:36;13.50;99.90
18444;DHT22;9350;53.176;8.194;2023-03-13T13:35:17;13.40;99.90
18444;DHT22;9350;53.176;8.194;2023-03-13T13:37:45;13.40;99.90
18444;DHT22;9350;53.176;8.194;2023-03-13T13:40:21;13.30;99.90
18444;DHT22;9350;53.176;8.194;2023-03-13T13:42:53;13.30;99.90
18444;DHT22;9350;53.176;8.194;2023-03-13T13:45:31;13.20;99.90
18444;DHT22;9350;53.176;8.194;2023-03-13T13:48:26;13.30;99.90
18444;DHT22;9350;53.176;8.194;2023-03-13T13:53:59;13.30;99.90
18444;DHT22;9350;53.176;8.194;2023-03-13T13:56:33;13.50;99.90
18444;DHT22;9350;53.176;8.194;2023-03-13T13:59:04;13.40;99.90
18444;DHT22;9350;53.176;8.194;2023-03-13T14:01:32;13.40;99.90
18444;DHT22;9350;53.176;8.194;2023-03-13T14:04:09;13.30;99.90
18444;DHT22;9350;53.176;8.194;2023-03-13T14:06:37;13.40;99.90
18444;DHT22;9350;53.176;8.194;2023-03-13T14:09:14;13.30;99.90
18444;DHT22;9350;53.176;8.194;2023-03-13T14:11:45;13.40;99.90
18444;DHT22;9350;53.176;8.194;2023-03-13T14:14:14;13.40;99.90
18444;DHT22;9350;53.176;8.194;2023-03-13T14:16:43;13.30;99.90
18444;DHT22;9350;53.176;8.194;2023-03-13T14:19:23;13.40;99.90
18444;DHT22;9350;53.176;8.194;2023-03-13T14:21:55;13.40;99.90
18444;DHT22;9350;53.176;8.194;2023-03-13T14:24:22;13.50;99.90
18444;DHT22;9350;53.176;8.194;2023-03-13T14:26:49;13.70;99.90
18444;DHT22;9350;53.176;8.194;2023-03-13T14:29:17;13.50;99.90
18444;DHT22;9350;53.176;8.194;2023-03-13T14:31:51;13.50;99.90
18444;DHT22;9350;53.176;8.194;2023-03-13T14:34:18;13.40;99.90
18444;DHT22;9350;53.176;8.194;2023-03-13T14:36:47;13.50;99.90
18444;DHT22;9350;53.176;8.194;2023-03-13T14:39:18;13.50;99.90
18444;DHT22;9350;53.176;8.194;2023-03-13T14:41:46;13.50;99.90
18444;DHT22;9350;53.176;8.194;2023-03-13T14:44:19;13.60;99.90
18444;DHT22;9350;53.176;8.194;2023-03-13T14:46:47;13.50;99.90
18444;DHT22;9350;53.176;8.194;2023-03-13T14:49:16;13.50;99.90
18444;DHT22;9350;53.176;8.194;2023-03-13T14:51:45;13.40;99.90
18444;DHT22;9350;53.176;8.194;2023-03-13T14:54:25;13.40;99.90
18444;DHT22;9350;53.176;8.194;2023-03-13T14:57:02;13.40;99.90
18444;DHT22;9350;53.176;8.194;2023-03-13T14:59:30;13.40;99.90
18444;DHT22;9350;53.176;8.194;2023-03-13T15:01:58;13.50;99.90
18444;DHT22;9350;53.176;8.194;2023-03-13T15:04:53;13.50;99.90
18444;DHT22;9350;53.176;8.194;2023-03-13T15:07:22;13.80;99.90
18444;DHT22;9350;53.176;8.194;2023-03-13T15:09:49;13.70;99.90
18444;DHT22;9350;53.176;8.194;2023-03-13T15:12:18;13.60;99.90
18444;DHT22;9350;53.176;8.194;2023-03-13T15:14:46;13.70;99.90
18444;DHT22;9350;53.176;8.194;2023-03-13T15:17:19;13.60;99.90
18444;DHT22;9350;53.176;8.194;2023-03-13T15:19:50;13.60;99.90
18444;DHT22;9350;53.176;8.194;2023-03-13T15:22:23;13.70;99.90
18444;DHT22;9350;53.176;8.194;2023-03-13T15:24:50;13.70;99.90
18444;DHT22;9350;53.176;8.194;2023-03-13T15:27:19;13.70;99.90
18444;DHT22;9350;53.176;8.194;2023-03-13T15:29:46;13.70;99.90
18444;DHT22;9350;53.176;8.194;2023-03-13T15:32:18;13.90;99.90
18444;DHT22;9350;53.176;8.194;2023-03-13T15:34:47;13.70;99.90
18444;DHT22;9350;53.176;8.194;2023-03-13T15:37:14;13.60;99.90
18444;DHT22;9350;53.176;8.194;2023-03-13T15:39:42;13.60;99.90
18444;DHT22;9350;53.176;8.194;2023-03-13T15:42:09;13.50;99.90
18444;DHT22;9350;53.176;8.194;2023-03-13T15:44:36;13.50;99.90
18444;DHT22;9350;53.176;8.194;2023-03-13T15:47:02;13.50;99.90
18444;DHT22;9350;53.176;8.194;2023-03-13T15:49:29;13.40;99.90
18444;DHT22;9350;53.176;8.194;2023-03-13T15:51:56;13.50;99.90
18444;DHT22;9350;53.176;8.194;2023-03-13T15:54:23;13.40;99.90
18444;DHT22;9350;53.176;8.194;2023-03-13T15:56:52;13.30;99.90
18444;DHT22;9350;53.176;8.194;2023-03-13T15:59:19;13.30;99.90
18444;DHT22;9350;53.176;8.194;2023-03-13T16:01:45;13.40;99.90
18444;DHT22;9350;53.176;8.194;2023-03-13T16:04:12;13.50;99.90
18444;DHT22;9350;53.176;8.194;2023-03-13T16:06:39;13.40;99.90
18444;DHT22;9350;53.176;8.194;2023-03-13T16:09:06;13.50;99.90
18444;DHT22;9350;53.176;8.194;2023-03-13T16:11:33;13.40;99.90
18444;DHT22;9350;53.176;8.194;2023-03-13T16:14:01;13.30;99.90
18444;DHT22;9350;53.176;8.194;2023-03-13T16:16:30;13.30;99.90
18444;DHT22;9350;53.176;8.194;2023-03-13T16:18:58;13.20;99.90
18444;DHT22;9350;53.176;8.194;2023-03-13T16:21:27;13.30;99.90
18444;DHT22;9350;53.176;8.194;2023-03-13T16:23:54;13.30;99.90
18444;DHT22;9350;53.176;8.194;2023-03-13T16:26:22;13.20;99.90